Time;durP1;ratioP1;P1;durP2;ratioP2;P2;SDS_P1;SDS_P2;PMS_P1;PMS_P2;Temp;Humidity;BMP_temperature;BMP_pressure;BME280_temperature;BME280_humidity;BME280_pressure;Samples;Min_cycle;Max_cycle;Signal;HPM_P1;HPM_P2
2022/06/10 00:00:31;;;;;;;9.77;3.33;;;;;;;14.44;100.00;101891.31;10232313;28;20041;-64
2022/06/10 00:05:30;;;;;;;7.95;3.13;;;;;;;14.41;100.00;101903.75;10227501;28;20072;-66
2022/06/10 00:10:27;;;;;;;10.55;3.40;;;;;;;14.43;100.00;101904.25;10222902;28;20449;-65
2022/06/10 00:15:24;;;;;;;10.90;3.75;;;;;;;14.45;100.00;101901.97;10226015;28;20858;-65
2022/06/10 00:20:24;;;;;;;7.65;3.38;;;;;;;14.47;100.00;101905.25;10226172;28;20045;-65
2022/06/10 00:25:22;;;;;;;12.93;4.63;;;;;;;14.44;100.00;101914.13;10224018;28;20140;-65
2022/06/10 00:30:24;;;;;;;8.63;3.47;;;;;;;14.43;100.00;101915.25;10221028;28;20080;-65
2022/06/10 00:35:20;;;;;;;12.00;3.75;;;;;;;14.40;100.00;101915.88;10222613;28;20049;-66
2022/06/10 00:40:30;;;;;;;8.88;3.67;;;;;;;14.38;100.00;101907.13;10228326;28;20050;-65
2022/06/10 00:46:00;;;;;;;8.23;3.83;;;;;;;14.32;100.00;101911.16;10225828;28;20133;-64
2022/06/10 00:50:59;;;;;;;12.65;3.47;;;;;;;14.31;100.00;101917.75;10225896;28;20057;-67
2022/06/10 00:55:56;;;;;;;8.77;3.17;;;;;;;14.29;100.00;101920.00;10221694;28;20053;-67
2022/06/10 01:00:52;;;;;;;8.45;4.05;;;;;;;14.28;100.00;101923.91;10227753;28;20057;-66
2022/06/10 01:05:49;;;;;;;11.32;3.83;;;;;;;14.17;100.00;101922.53;10220055;28;20060;-66
2022/06/10 01:11:20;;;;;;;9.02;4.13;;;;;;;14.13;100.00;101927.03;10219937;28;20052;-67
2022/06/10 01:16:19;;;;;;;11.75;4.28;;;;;;;14.06;100.00;101922.78;10218435;28;20156;-67
2022/06/10 01:21:53;;;;;;;15.05;4.60;;;;;;;14.01;100.00;101924.84;10229620;28;20057;-66
2022/06/10 01:32:49;;;;;;;14.30;4.38;;;;;;;14.01;100.00;101936.63;10200133;28;20343;-66
2022/06/10 01:37:55;;;;;;;8.80;4.30;;;;;;;14.01;100.00;101941.34;10227183;28;20077;-66
2022/06/10 01:43:01;;;;;;;9.02;4.00;;;;;;;13.95;100.00;101937.91;10224374;28;20072;-66
2022/06/10 01:48:15;;;;;;;14.68;5.20;;;;;;;13.91;100.00;101942.38;10230404;28;20132;-66
2022/06/10 01:53:24;;;;;;;11.07;4.28;;;;;;;13.87;100.00;101946.88;10218567;28;20107;-66
2022/06/10 01:58:27;;;;;;;12.07;4.15;;;;;;;13.85;100.00;101943.63;10220771;28;20636;-66
2022/06/10 02:03:23;;;;;;;;;;;;;;;13.85;100.00;101952.69;10219805;28;20406;-66
2022/06/10 02:08:29;;;;;;;11.10;4.32;;;;;;;13.76;100.00;101951.81;10222583;28;19921;-67
2022/06/10 02:13:30;;;;;;;9.57;4.07;;;;;;;13.76;100.00;101957.31;10224600;28;20084;-66
2022/06/10 02:18:30;;;;;;;11.45;4.28;;;;;;;13.72;100.00;101960.97;10224369;28;20053;-65
2022/06/10 02:23:34;;;;;;;12.07;4.07;;;;;;;13.68;100.00;101961.59;10221646;28;20065;-65
2022/06/10 02:28:41;;;;;;;14.82;4.18;;;;;;;13.61;100.00;101955.69;10224670;28;20107;-65
2022/06/10 02:33:39;;;;;;;15.05;5.47;;;;;;;13.53;100.00;101952.84;10225212;28;20065;-66
2022/06/10 02:39:01;;;;;;;11.70;5.47;;;;;;;13.42;100.00;101957.75;10218907;28;20069;-64
2022/06/10 02:44:22;;;;;;;14.45;5.38;;;;;;;13.36;100.00;101958.97;10220466;28;20464;-65
2022/06/10 02:49:20;;;;;;;10.00;4.93;;;;;;;13.29;100.00;101966.81;10226178;28;20049;-66
2022/06/10 02:54:29;;;;;;;8.63;4.90;;;;;;;13.25;100.00;101974.81;10221763;28;20065;-65
2022/06/10 03:04:59;;;;;;;13.23;5.72;;;;;;;13.12;100.00;101981.94;10224171;28;20474;-65
2022/06/10 03:10:04;;;;;;;13.70;5.80;;;;;;;13.11;100.00;101985.81;10223947;28;20183;-65
2022/06/10 03:15:31;;;;;;;12.20;5.43;;;;;;;13.06;100.00;101988.66;10238098;28;20057;-65
2022/06/10 03:20:46;;;;;;;12.15;5.00;;;;;;;13.02;100.00;101987.66;10229841;28;20497;-65
2022/06/10 03:25:52;;;;;;;11.65;5.50;;;;;;;13.02;100.00;101987.66;10233484;28;20064;-65
2022/06/10 03:30:51;;;;;;;16.02;6.15;;;;;;;13.00;100.00;102000.84;10238139;28;20068;-68
2022/06/10 03:35:53;;;;;;;21.10;6.57;;;;;;;12.99;100.00;101996.47;10238473;28;20129;-67
2022/06/10 03:40:59;;;;;;;11.85;5.68;;;;;;;13.00;100.00;102003.59;10241245;28;20120;-65
2022/06/10 03:46:03;;;;;;;14.30;6.32;;;;;;;12.97;100.00;102001.44;10233506;28;20061;-66
2022/06/10 03:51:01;;;;;;;18.25;7.30;;;;;;;12.96;100.00;101999.81;10241023;28;20045;-66
2022/06/10 03:55:57;;;;;;;10.70;6.25;;;;;;;12.97;100.00;102001.44;10234197;28;20405;-65
2022/06/10 04:00:54;;;;;;;10.63;5.40;;;;;;;13.05;100.00;102000.75;10232793;28;20053;-66
2022/06/10 04:05:50;;;;;;;15.48;6.55;;;;;;;13.08;100.00;102008.38;10233945;28;20041;-65
2022/06/10 04:11:07;;;;;;;11.82;5.88;;;;;;;13.09;100.00;102015.50;10230159;28;20128;-67
2022/06/10 04:16:04;;;;;;;17.23;6.93;;;;;;;13.10;100.00;102019.88;10221934;28;21645;-66
2022/06/10 04:21:00;;;;;;;16.58;6.32;;;;;;;13.10;100.00;102017.13;10221672;28;20047;-66
2022/06/10 04:25:57;;;;;;;14.05;5.75;;;;;;;13.15;100.00;102022.53;10210399;28;20049;-63
2022/06/10 04:30:55;;;;;;;14.45;6.35;;;;;;;13.21;100.00;102035.03;10211034;28;20421;-65
2022/06/10 04:35:51;;;;;;;10.60;5.75;;;;;;;13.24;100.00;102031.69;10201102;28;20556;-65
2022/06/10 04:40:49;;;;;;;10.85;5.97;;;;;;;13.30;100.00;102031.63;10205962;28;20061;-63
2022/06/10 04:45:49;;;;;;;18.25;6.40;;;;;;;13.35;100.00;102035.09;10226897;28;20053;-61
2022/06/10 04:50:49;;;;;;;12.88;5.90;;;;;;;13.42;100.00;102023.69;10218514;28;20049;-64
2022/06/10 04:55:46;;;;;;;11.52;5.95;;;;;;;13.46;100.00;102030.22;10197744;28;20168;-61
2022/06/10 05:00:47;;;;;;;12.13;5.00;;;;;;;13.47;100.00;102037.34;10195759;28;20138;-63
2022/06/10 05:05:44;;;;;;;12.87;5.27;;;;;;;13.52;100.00;102050.97;10202638;28;20050;-63
2022/06/10 05:10:41;;;;;;;15.20;5.05;;;;;;;13.64;100.00;102050.44;10206192;28;20486;-63
2022/06/10 05:15:37;;;;;;;9.68;4.40;;;;;;;13.77;100.00;102057.06;10194098;28;20099;-63
2022/06/10 05:20:38;;;;;;;9.32;3.83;;;;;;;13.86;100.00;102055.22;10201648;28;20096;-62
2022/06/10 05:25:35;;;;;;;11.23;3.85;;;;;;;13.96;100.00;102059.69;10198891;28;20080;-66
2022/06/10 05:30:33;;;;;;;13.05;4.10;;;;;;;14.04;100.00;102051.53;10204776;28;20763;-65
2022/06/10 05:35:31;;;;;;;12.93;3.80;;;;;;;14.12;100.00;102046.41;10217115;28;20127;-65
2022/06/10 05:40:29;;;;;;;11.02;3.33;;;;;;;14.24;100.00;102049.44;10214824;28;20121;-66
2022/06/10 05:45:27;;;;;;;13.68;2.95;;;;;;;14.34;100.00;102054.69;10214843;28;20045;-69
2022/06/10 05:50:32;;;;;;;10.10;2.60;;;;;;;14.47;100.00;102048.34;10210500;28;20508;-69
2022/06/10 05:55:32;;;;;;;11.60;2.45;;;;;;;14.53;100.00;102062.81;10187474;28;20125;-68
2022/06/10 06:00:35;;;;;;;10.55;2.60;;;;;;;14.64;100.00;102060.63;10200222;28;20058;-67
2022/06/10 06:05:32;;;;;;;10.07;2.80;;;;;;;14.76;100.00;102066.41;10196169;28;20108;-68
2022/06/10 06:10:29;;;;;;;10.80;2.03;;;;;;;14.83;100.00;102065.94;10200182;28;20574;-69
2022/06/10 06:15:26;;;;;;;9.27;2.53;;;;;;;14.92;100.00;102064.88;10215237;28;20069;-68
2022/06/10 06:20:23;;;;;;;7.03;1.58;;;;;;;15.03;100.00;102059.09;10223129;28;20532;-69
2022/06/10 06:25:20;;;;;;;14.80;1.98;;;;;;;15.15;100.00;102062.06;10221939;28;20076;-69
2022/06/10 06:30:31;;;;;;;8.85;2.50;;;;;;;15.29;100.00;102062.81;10216418;28;20136;-69
2022/06/10 06:35:28;;;;;;;7.32;1.33;;;;;;;15.43;100.00;102062.69;10209644;28;20485;-69
2022/06/10 06:40:25;;;;;;;6.07;1.30;;;;;;;15.50;100.00;102067.75;10223194;28;20579;-69
2022/06/10 06:45:23;;;;;;;6.20;1.33;;;;;;;15.66;100.00;102066.19;10221640;28;20046;-69
2022/06/10 06:50:31;;;;;;;7.22;1.25;;;;;;;15.78;100.00;102060.06;10217875;28;20045;-69
2022/06/10 06:55:27;;;;;;;11.75;1.90;;;;;;;15.89;100.00;102071.63;10215421;28;20544;-69
2022/06/10 07:00:27;;;;;;;7.97;1.40;;;;;;;16.05;100.00;102072.78;10204751;28;20138;-69
2022/06/10 07:05:23;;;;;;;5.57;1.38;;;;;;;16.17;100.00;102058.38;10208767;28;20084;-69
2022/06/10 07:10:21;;;;;;;5.75;1.23;;;;;;;16.29;100.00;102066.00;10185556;28;20048;-69
2022/06/10 07:15:18;;;;;;;7.05;1.40;;;;;;;16.35;100.00;102075.75;10202941;28;20050;-68
2022/06/10 07:20:26;;;;;;;7.70;1.27;;;;;;;16.52;100.00;102075.75;10197842;28;20744;-69
2022/06/10 07:25:22;;;;;;;6.75;1.30;;;;;;;16.63;100.00;102088.09;10205021;28;20045;-69
2022/06/10 07:30:20;;;;;;;9.52;1.85;;;;;;;16.71;100.00;102077.34;10208744;28;20133;-70
2022/06/10 07:35:18;;;;;;;7.38;1.60;;;;;;;16.78;100.00;102077.69;10198127;28;20055;-69
2022/06/10 07:46:03;;;;;;;7.13;1.25;;;;;;;16.92;100.00;102083.03;10188409;28;20038;-67
2022/06/10 07:51:00;;;;;;;7.80;1.50;;;;;;;17.02;100.00;102077.19;10184542;28;20042;-68
2022/06/10 07:55:57;;;;;;;5.57;1.40;;;;;;;17.12;100.00;102064.97;10191944;28;20049;-68
2022/06/10 08:00:54;;;;;;;7.32;1.73;;;;;;;17.22;100.00;102075.69;10200137;28;20054;-67
2022/06/10 08:05:50;;;;;;;6.85;0.98;;;;;;;17.36;100.00;102070.75;10200998;28;20076;-68
2022/06/10 08:10:48;;;;;;;8.38;1.58;;;;;;;17.42;100.00;102068.59;10211451;28;20767;-68
2022/06/10 08:15:46;;;;;;;10.52;1.50;;;;;;;17.59;100.00;102068.53;10208773;28;20104;-72
2022/06/10 08:26:03;;;;;;;9.77;1.70;;;;;;;17.82;98.36;102054.44;10211674;28;20065;-71
2022/06/10 08:30:59;;;;;;;9.95;1.70;;;;;;;18.00;97.47;102061.47;10203732;28;20048;-70
2022/06/10 08:35:57;;;;;;;5.50;1.05;;;;;;;18.16;97.62;102047.84;10199182;28;20092;-71
2022/06/10 08:41:12;;;;;;;7.85;1.27;;;;;;;18.25;88.73;102047.78;10196068;28;20504;-71
2022/06/10 08:46:35;;;;;;;5.72;1.88;;;;;;;18.42;88.18;102046.81;10213973;28;20131;-70
2022/06/10 08:51:59;;;;;;;10.15;1.13;;;;;;;18.67;87.05;102047.75;10212999;28;20095;-70
2022/06/10 08:57:02;;;;;;;10.15;1.95;;;;;;;18.88;90.97;102044.94;10218651;28;20099;-71
2022/06/10 09:02:22;;;;;;;8.05;1.73;;;;;;;19.10;94.45;102041.78;10224636;28;20069;-70
2022/06/10 09:07:30;;;;;;;8.65;1.65;;;;;;;19.26;93.34;102035.53;10215756;28;20037;-70
2022/06/10 09:13:12;;;;;;;8.73;2.58;;;;;;;19.43;90.40;102040.06;10218201;28;20548;-71
2022/06/10 09:18:18;;;;;;;11.80;2.10;;;;;;;19.50;88.71;102043.88;10200475;28;20135;-71
2022/06/10 09:23:31;;;;;;;7.13;1.63;;;;;;;19.66;89.82;102029.31;10216129;28;20042;-71
2022/06/10 09:28:28;;;;;;;7.00;1.65;;;;;;;19.91;89.55;102030.94;10224370;28;20037;-71
2022/06/10 09:33:38;;;;;;;9.30;1.83;;;;;;;20.05;84.10;102025.00;10202833;28;20616;-71
2022/06/10 09:39:04;;;;;;;7.25;1.63;;;;;;;20.16;86.15;102025.31;10216364;28;20137;-70
2022/06/10 09:44:29;;;;;;;3.95;1.23;;;;;;;20.47;86.18;102029.34;10210187;28;20049;-71
2022/06/10 09:49:38;;;;;;;8.85;1.85;;;;;;;20.66;84.23;102029.53;10198538;28;20563;-70
2022/06/10 09:55:05;;;;;;;8.57;1.80;;;;;;;21.06;84.24;102034.16;10219928;28;20564;-70
2022/06/10 10:00:10;;;;;;;5.00;1.42;;;;;;;20.78;71.47;102023.91;10204943;28;20099;-69
2022/06/10 10:05:23;;;;;;;6.50;1.77;;;;;;;20.53;78.35;102025.16;10199477;28;20192;-69
2022/06/10 10:10:47;;;;;;;7.28;1.70;;;;;;;20.49;76.80;102027.03;10201496;28;20053;-69
2022/06/10 10:16:06;;;;;;;9.07;1.65;;;;;;;20.69;79.24;102026.03;10207603;28;20045;-68
2022/06/10 10:21:11;;;;;;;5.82;1.58;;;;;;;22.06;71.36;102030.97;10195514;28;20045;-68
2022/06/10 10:26:25;;;;;;;10.05;2.33;;;;;;;22.88;63.83;102015.13;10211652;28;20095;-68
2022/06/10 10:31:30;;;;;;;6.88;2.00;;;;;;;22.46;60.39;102015.09;10205143;28;20052;-67
2022/06/10 10:36:32;;;;;;;8.02;1.73;;;;;;;22.08;61.49;102004.75;10196403;28;20502;-68
2022/06/10 10:41:32;;;;;;;7.40;1.52;;;;;;;23.64;60.51;101997.59;10206746;28;20049;-65
2022/06/10 10:46:33;;;;;;;7.18;1.65;;;;;;;24.66;52.13;102003.31;10194110;28;20050;-68
2022/06/10 10:51:38;;;;;;;8.15;1.52;;;;;;;25.57;46.50;102000.88;10192632;28;20053;-68
2022/06/10 10:56:52;;;;;;;8.82;1.60;;;;;;;26.58;45.48;102002.97;10196712;28;20042;-68
2022/06/10 11:01:51;;;;;;;5.18;1.50;;;;;;;26.85;41.22;101988.56;10202353;28;20054;-69
2022/06/10 11:07:18;;;;;;;6.35;1.33;;;;;;;26.23;40.80;102004.44;10195920;28;20053;-68
2022/06/10 11:12:27;;;;;;;6.82;2.05;;;;;;;24.77;44.25;102004.22;10199845;28;20416;-68
2022/06/10 11:17:24;;;;;;;7.20;1.73;;;;;;;24.15;47.24;102002.69;10201662;28;20081;-68
2022/06/10 11:22:35;;;;;;;6.28;1.20;;;;;;;23.29;47.02;102001.47;10208326;28;20081;-69
2022/06/10 11:27:40;;;;;;;6.03;1.20;;;;;;;23.33;49.32;102000.75;10192008;28;20076;-69
2022/06/10 11:32:40;;;;;;;9.32;2.00;;;;;;;24.19;49.79;101997.16;10212026;28;20046;-69
2022/06/10 11:37:40;;;;;;;5.05;1.27;;;;;;;24.91;49.73;101987.56;10206532;28;20049;-69
2022/06/10 11:42:46;;;;;;;6.45;1.70;;;;;;;24.38;48.50;101995.38;10200931;28;20080;-69
2022/06/10 11:48:10;;;;;;;6.43;1.85;;;;;;;25.01;46.58;101979.66;10207284;28;20134;-68
2022/06/10 11:53:20;;;;;;;6.10;1.50;;;;;;;24.79;44.67;101979.47;10206454;28;20594;-69
2022/06/10 12:03:57;;;;;;;6.70;1.50;;;;;;;23.94;50.26;101968.91;10201950;28;20182;-69
2022/06/10 12:09:17;;;;;;;5.70;1.60;;;;;;;23.70;51.62;101970.97;10216972;28;20406;-68
2022/06/10 12:14:22;;;;;;;4.40;1.30;;;;;;;23.34;52.02;101963.28;10205551;28;20120;-68
2022/06/10 12:19:34;;;;;;;5.25;1.38;;;;;;;23.12;52.48;101960.16;10213993;28;20046;-69
2022/06/10 12:24:30;;;;;;;4.00;1.48;;;;;;;23.28;55.92;101965.59;10216459;28;20046;-68
2022/06/10 12:29:35;;;;;;;5.68;1.30;;;;;;;23.55;52.48;101952.41;10214440;28;20069;-69
2022/06/10 12:34:53;;;;;;;6.45;1.55;;;;;;;23.95;53.69;101959.38;10214921;28;20168;-69
2022/06/10 12:40:19;;;;;;;5.32;1.27;;;;;;;23.60;54.10;101948.50;10213191;28;20045;-69
2022/06/10 12:45:28;;;;;;;5.68;1.80;;;;;;;23.41;58.95;101952.22;10209397;28;20050;-68
2022/06/10 12:50:25;;;;;;;8.73;1.90;;;;;;;22.94;62.00;101950.66;10211492;28;20552;-68
2022/06/10 12:55:31;;;;;;;6.40;1.92;;;;;;;22.74;68.05;101953.50;10213717;28;20140;-68
2022/06/10 13:00:41;;;;;;;7.32;2.20;;;;;;;22.88;68.49;101964.91;10207799;28;20501;-68
2022/06/10 13:05:39;;;;;;;6.40;1.77;;;;;;;22.92;73.08;101959.38;10215427;28;20061;-68
2022/06/10 13:10:36;;;;;;;7.30;1.85;;;;;;;22.80;75.99;101971.53;10208640;28;20700;-68
2022/06/10 13:15:32;;;;;;;8.40;1.65;;;;;;;22.89;79.46;101966.53;10221489;28;20045;-68
2022/06/10 13:20:29;;;;;;;5.65;1.25;;;;;;;22.63;81.22;101972.03;10206463;28;20050;-68
2022/06/10 13:25:27;;;;;;;6.28;1.50;;;;;;;22.38;83.94;101969.59;10214292;28;20661;-68
2022/06/10 13:30:25;;;;;;;7.20;1.45;;;;;;;22.47;84.86;101972.16;10210456;28;20042;-69
2022/06/10 13:35:32;;;;;;;4.72;1.50;;;;;;;22.36;86.62;101977.50;10204126;28;20505;-68
2022/06/10 13:40:30;;;;;;;5.03;1.00;;;;;;;22.31;87.72;101969.44;10230428;28;20099;-68
2022/06/10 13:45:37;;;;;;;7.75;1.25;;;;;;;22.30;87.62;101978.16;10212240;28;20069;-68
2022/06/10 13:51:09;;;;;;;6.30;1.60;;;;;;;21.98;89.89;101979.09;10209353;28;20053;-68
2022/06/10 13:56:12;;;;;;;4.40;1.15;;;;;;;21.72;92.59;101974.19;10214640;28;20609;-68
2022/06/10 14:01:21;;;;;;;5.22;1.00;;;;;;;21.64;92.30;101975.97;10205524;28;20065;-68
2022/06/10 14:06:34;;;;;;;4.88;1.20;;;;;;;21.58;93.15;101983.00;10208561;28;20046;-68
2022/06/10 14:11:42;;;;;;;5.60;1.15;;;;;;;21.36;95.43;101986.44;10217209;28;20076;-68
2022/06/10 14:16:38;;;;;;;4.82;1.10;;;;;;;21.30;98.82;101982.28;10226943;28;20464;-68
2022/06/10 14:21:36;;;;;;;7.72;1.02;;;;;;;21.08;100.00;101984.56;10226246;28;20581;-68
2022/06/10 14:26:35;;;;;;;3.33;0.80;;;;;;;21.07;100.00;101985.72;10221852;28;20041;-68
2022/06/10 14:31:34;;;;;;;5.00;1.38;;;;;;;21.06;100.00;102000.00;10230372;28;20041;-68
2022/06/10 14:36:32;;;;;;;4.32;1.00;;;;;;;21.11;100.00;101986.63;10219838;28;20587;-68
2022/06/10 14:41:28;;;;;;;3.88;1.10;;;;;;;21.22;100.00;101987.69;10223261;28;20065;-68
2022/06/10 14:46:25;;;;;;;3.97;1.10;;;;;;;21.21;100.00;101991.66;10224467;28;20123;-68
2022/06/10 14:51:36;;;;;;;5.22;1.10;;;;;;;21.40;100.00;102004.03;10223851;28;20072;-68
2022/06/10 14:56:41;;;;;;;7.60;1.27;;;;;;;21.30;100.00;101985.06;10228800;28;20080;-68
2022/06/10 15:01:38;;;;;;;5.95;2.05;;;;;;;21.48;100.00;101988.31;10215599;28;20053;-68
2022/06/10 15:06:39;;;;;;;4.90;1.77;;;;;;;21.77;100.00;101989.75;10219895;28;20045;-68
2022/06/10 15:11:36;;;;;;;4.72;1.20;;;;;;;21.71;100.00;101991.22;10221652;28;20557;-69
2022/06/10 15:16:32;;;;;;;7.80;1.50;;;;;;;21.55;100.00;102002.41;10225693;28;20120;-68
2022/06/10 15:21:51;;;;;;;4.47;1.40;;;;;;;21.16;100.00;101996.66;10216520;28;20543;-68
2022/06/10 15:26:50;;;;;;;3.97;1.23;;;;;;;21.26;100.00;102001.69;10220906;28;20100;-67
2022/06/10 15:31:48;;;;;;;3.53;1.60;;;;;;;21.36;100.00;101997.56;10216659;28;20053;-68
2022/06/10 15:42:01;;;;;;;8.15;1.95;;;;;;;21.60;100.00;101986.22;10225666;28;20088;-68
2022/06/10 15:47:04;;;;;;;5.15;1.83;;;;;;;21.62;100.00;102000.56;10208337;28;20068;-67
2022/06/10 15:52:06;;;;;;;5.22;1.75;;;;;;;21.64;100.00;101989.88;10226830;28;20501;-68
2022/06/10 15:57:06;;;;;;;4.50;1.50;;;;;;;21.56;100.00;101985.34;10214889;28;20073;-68
2022/06/10 16:02:14;;;;;;;5.88;1.63;;;;;;;21.59;100.00;101979.03;10211515;28;20062;-68
2022/06/10 16:07:10;;;;;;;4.75;1.50;;;;;;;21.70;100.00;101976.50;10197622;28;20161;-68
2022/06/10 16:17:27;;;;;;;5.00;2.20;;;;;;;22.02;100.00;101980.00;10193778;28;20076;-68
2022/06/10 16:22:24;;;;;;;3.85;1.58;;;;;;;22.09;100.00;101984.06;10203288;28;20073;-68
2022/06/10 16:27:21;;;;;;;6.53;1.77;;;;;;;22.15;100.00;101971.47;10207101;28;20720;-68
2022/06/10 16:32:20;;;;;;;4.57;1.27;;;;;;;21.91;100.00;101973.38;10224311;28;20041;-68
2022/06/10 16:37:17;;;;;;;7.32;1.70;;;;;;;21.95;100.00;101974.25;10230685;28;20072;-68
2022/06/10 16:42:23;;;;;;;6.50;1.80;;;;;;;21.94;100.00;101967.06;10223628;28;20049;-69
2022/06/10 16:47:21;;;;;;;6.38;1.73;;;;;;;22.05;100.00;101956.97;10214751;28;20390;-68
2022/06/10 16:52:21;;;;;;;6.03;1.60;;;;;;;22.05;100.00;101961.75;10215814;28;20115;-68
2022/06/10 16:57:26;;;;;;;3.78;1.60;;;;;;;21.96;100.00;101967.53;10205781;28;20650;-68
2022/06/10 17:02:33;;;;;;;4.53;1.40;;;;;;;21.97;100.00;101957.19;10213654;28;20045;-68
2022/06/10 17:07:33;;;;;;;4.95;1.73;;;;;;;21.96;100.00;101953.59;10213455;28;20120;-64
2022/06/10 17:12:33;;;;;;;6.20;1.88;;;;;;;21.97;100.00;101960.75;10213962;28;20054;-68
2022/06/10 17:17:30;;;;;;;6.65;1.90;;;;;;;22.00;100.00;101953.66;10205432;28;20076;-68
2022/06/10 17:22:27;;;;;;;4.53;1.85;;;;;;;22.15;100.00;101955.56;10207739;28;20529;-68
2022/06/10 17:27:31;;;;;;;7.75;1.70;;;;;;;22.31;100.00;101958.31;10213272;28;20091;-68
2022/06/10 17:32:32;;;;;;;6.93;2.38;;;;;;;22.66;100.00;101957.34;10220336;28;20069;-69
2022/06/10 17:37:33;;;;;;;8.32;1.73;;;;;;;24.01;97.70;101951.44;10207064;28;20480;-69
2022/06/10 17:42:37;;;;;;;6.13;1.55;;;;;;;25.01;91.67;101946.06;10212252;28;20061;-69
2022/06/10 17:47:34;;;;;;;7.70;1.63;;;;;;;25.38;83.91;101960.75;10208274;28;20072;-68
2022/06/10 17:52:30;;;;;;;6.93;1.88;;;;;;;23.99;87.29;101946.22;10212200;28;20046;-68
2022/06/10 17:57:41;;;;;;;5.45;1.80;;;;;;;23.89;92.80;101949.72;10197235;28;20163;-68
2022/06/10 18:03:03;;;;;;;8.80;1.63;;;;;;;23.70;94.75;101931.88;10207272;28;20053;-68
2022/06/10 18:08:03;;;;;;;6.35;1.77;;;;;;;23.07;96.23;101938.16;10204891;28;20041;-68
2022/06/10 18:18:45;;;;;;;7.70;2.03;;;;;;;22.27;100.00;101930.34;10213724;28;20095;-67
2022/06/10 18:23:46;;;;;;;7.03;1.95;;;;;;;22.03;100.00;101923.09;10221407;28;20096;-68
2022/06/10 18:28:42;;;;;;;5.18;1.60;;;;;;;21.87;100.00;101933.53;10205077;28;20501;-67
2022/06/10 18:33:39;;;;;;;7.88;1.55;;;;;;;21.72;100.00;101931.59;10216647;28;20744;-68
2022/06/10 18:38:36;;;;;;;5.43;1.30;;;;;;;21.58;100.00;101927.34;10213229;28;20071;-68
2022/06/10 18:43:33;;;;;;;6.68;1.33;;;;;;;21.49;100.00;101925.94;10206599;28;20692;-69
2022/06/10 18:48:34;;;;;;;5.60;1.52;;;;;;;21.39;100.00;101925.28;10213456;28;20200;-68
2022/06/10 18:53:32;;;;;;;4.70;1.10;;;;;;;21.31;100.00;101923.53;10216629;28;20092;-68
2022/06/10 18:58:28;;;;;;;7.72;1.70;;;;;;;21.17;100.00;101935.13;10211994;28;20038;-68
2022/06/10 19:03:30;;;;;;;10.13;2.17;;;;;;;21.06;100.00;101934.06;10202525;28;20686;-68
2022/06/10 19:08:28;;;;;;;;;;;;;;;20.81;100.00;101939.78;10213104;28;20045;-68
2022/06/10 19:13:25;;;;;;;6.57;1.88;;;;;;;20.55;100.00;101945.84;10210517;28;19998;-68
2022/06/10 19:18:27;;;;;;;8.40;2.58;;;;;;;20.42;100.00;101949.84;10203482;28;20068;-69
2022/06/10 19:23:30;;;;;;;8.97;2.13;;;;;;;20.25;100.00;101945.44;10201368;28;20107;-68
2022/06/10 19:28:36;;;;;;;7.38;2.63;;;;;;;20.09;100.00;101950.13;10216845;28;20648;-68
2022/06/10 19:33:46;;;;;;;8.15;2.90;;;;;;;19.93;100.00;101956.44;10201336;28;20041;-68
2022/06/10 19:38:43;;;;;;;5.85;2.90;;;;;;;19.83;100.00;101962.47;10212302;28;20046;-68
2022/06/10 19:48:56;;;;;;;5.55;3.10;;;;;;;19.67;100.00;101959.59;10205327;28;20038;-68
2022/06/10 19:53:53;;;;;;;9.25;2.85;;;;;;;19.61;100.00;101960.19;10221711;28;20150;-68
2022/06/10 19:58:49;;;;;;;6.78;2.65;;;;;;;19.53;100.00;101959.16;10218350;28;20171;-68
2022/06/10 20:03:49;;;;;;;7.28;2.60;;;;;;;19.48;100.00;101979.63;10220884;28;20073;-69
2022/06/10 20:08:46;;;;;;;7.28;3.20;;;;;;;19.45;100.00;101974.78;10205679;28;20046;-68
2022/06/10 20:13:44;;;;;;;10.80;4.15;;;;;;;19.41;100.00;101973.84;10219395;28;20070;-68
2022/06/10 20:18:45;;;;;;;10.73;4.80;;;;;;;19.38;100.00;101974.56;10219338;28;20115;-68
2022/06/10 20:23:45;;;;;;;7.13;3.25;;;;;;;19.37;100.00;101961.81;10217642;28;20041;-68
2022/06/10 20:28:41;;;;;;;6.22;3.13;;;;;;;19.38;100.00;101974.56;10219902;28;20125;-68
2022/06/10 20:33:39;;;;;;;11.13;3.15;;;;;;;19.38;100.00;101977.31;10219860;28;20444;-68
2022/06/10 20:38:36;;;;;;;6.10;2.85;;;;;;;19.41;100.00;101984.94;10227404;28;20070;-68
2022/06/10 20:43:33;;;;;;;9.40;3.67;;;;;;;19.50;100.00;101982.84;10228265;28;20053;-68
2022/06/10 20:48:35;;;;;;;8.80;3.28;;;;;;;19.55;100.00;101982.63;10203962;28;20048;-68
2022/06/10 20:53:32;;;;;;;7.50;2.92;;;;;;;19.57;100.00;101981.47;10218857;28;20049;-68
2022/06/10 20:58:33;;;;;;;10.07;3.13;;;;;;;19.52;100.00;101986.09;10213860;28;20050;-68
2022/06/10 21:03:36;;;;;;;8.20;3.00;;;;;;;19.51;100.00;101984.47;10221749;28;20041;-68
2022/06/10 21:08:33;;;;;;;8.45;3.40;;;;;;;19.48;100.00;101973.28;10225411;28;20107;-68
2022/06/10 21:13:32;;;;;;;5.55;3.22;;;;;;;19.47;100.00;101969.69;10228117;28;20073;-68
2022/06/10 21:18:35;;;;;;;8.73;3.10;;;;;;;19.44;100.00;101970.38;10225001;28;20041;-68
2022/06/10 21:23:32;;;;;;;9.32;2.67;;;;;;;19.39;100.00;101970.59;10216014;28;20119;-68
2022/06/10 21:28:28;;;;;;;7.70;3.05;;;;;;;19.30;100.00;101967.16;10218535;28;20076;-68
2022/06/10 21:33:48;;;;;;;8.55;3.40;;;;;;;19.20;100.00;101973.97;10218329;28;20484;-67
2022/06/10 21:38:46;;;;;;;9.43;3.10;;;;;;;19.04;100.00;101976.63;10221009;28;20057;-67
2022/06/10 21:48:59;;;;;;;7.25;3.55;;;;;;;18.79;100.00;101970.22;10225552;28;20077;-68
2022/06/10 21:53:58;;;;;;;6.18;3.13;;;;;;;18.69;100.00;101974.22;10212628;28;20862;-67
2022/06/10 21:58:59;;;;;;;7.10;3.78;;;;;;;18.63;100.00;101977.56;10224152;28;20069;-68
2022/06/10 22:04:25;;;;;;;7.72;3.72;;;;;;;18.54;100.00;101974.88;10201484;28;20512;-69
2022/06/10 22:09:29;;;;;;;7.93;3.90;;;;;;;18.49;100.00;101966.78;10206532;28;20590;-68
2022/06/10 22:14:25;;;;;;;7.60;4.15;;;;;;;18.44;100.00;101972.53;10208201;28;20077;-69
2022/06/10 22:19:33;;;;;;;7.65;4.50;;;;;;;18.37;100.00;101975.06;10204162;28;20041;-70
2022/06/10 22:24:32;;;;;;;7.05;3.92;;;;;;;18.27;100.00;101974.31;10202705;28;20041;-70
2022/06/10 22:29:29;;;;;;;9.00;4.78;;;;;;;18.20;100.00;101976.03;10211600;28;20037;-68
2022/06/10 22:34:35;;;;;;;7.50;4.18;;;;;;;18.11;100.00;101973.34;10226120;28;20455;-69
2022/06/10 22:39:31;;;;;;;7.03;4.57;;;;;;;18.06;100.00;101965.25;10221468;28;20045;-69
2022/06/10 22:44:48;;;;;;;7.47;4.40;;;;;;;18.05;100.00;101963.59;10228649;28;20045;-68
2022/06/10 22:49:48;;;;;;;11.95;5.90;;;;;;;18.07;100.00;101966.84;10230747;28;20049;-69
2022/06/10 22:54:46;;;;;;;7.85;4.75;;;;;;;18.09;100.00;101973.66;10230052;28;20049;-69
2022/06/10 23:00:06;;;;;;;9.75;5.47;;;;;;;18.16;100.00;101980.63;10209984;28;20553;-69
2022/06/10 23:10:33;;;;;;;8.38;5.13;;;;;;;18.17;100.00;101977.53;10221110;28;20041;-69
2022/06/10 23:15:30;;;;;;;9.05;5.57;;;;;;;18.14;100.00;101983.72;10217258;28;20046;-69
2022/06/10 23:20:34;;;;;;;9.43;6.28;;;;;;;18.14;100.00;101980.94;10225055;28;20503;-68
2022/06/10 23:25:34;;;;;;;11.63;6.97;;;;;;;18.14;100.00;101978.19;10219735;28;20037;-69
2022/06/10 23:30:35;;;;;;;8.55;5.75;;;;;;;18.16;100.00;101970.34;10234033;28;20037;-69
2022/06/10 23:35:35;;;;;;;8.90;6.60;;;;;;;18.15;100.00;101968.75;10234899;28;20041;-68
2022/06/10 23:40:34;;;;;;;9.90;6.90;;;;;;;18.15;100.00;101963.22;10237519;28;20084;-68
2022/06/10 23:50:50;;;;;;;7.72;5.38;;;;;;;18.15;100.00;101968.75;10231543;28;20128;-68
